createdAt,value
2022-09-03T00:00:11.691Z,33.55
2022-09-03T00:02:52.232Z,33.39
2022-09-03T00:05:29.665Z,33.29
2022-09-03T00:08:10.263Z,33.43
2022-09-03T00:10:46.640Z,33.47
2022-09-03T00:14:03.182Z,33.60
2022-09-03T00:16:41.328Z,33.65
2022-09-03T00:19:08.294Z,33.91
2022-09-03T00:21:44.584Z,33.52
2022-09-03T00:24:19.130Z,33.84
2022-09-03T00:26:54.551Z,33.67
2022-09-03T00:29:39.079Z,34.10
2022-09-03T00:32:14.710Z,34.25
2022-09-03T00:34:49.285Z,34.32
2022-09-03T00:37:16.575Z,34.04
2022-09-03T00:39:44.089Z,34.34
2022-09-03T00:42:24.951Z,34.16
2022-09-03T00:44:57.531Z,34.44
2022-09-03T00:48:06.418Z,34.26
2022-09-03T00:50:52.778Z,34.49
2022-09-03T00:53:47.870Z,34.61
2022-09-03T00:56:41.285Z,34.39
2022-09-03T00:59:21.933Z,34.60
2022-09-03T01:02:03.594Z,34.54
2022-09-03T01:05:18.658Z,34.58
2022-09-03T01:07:54.758Z,34.95
2022-09-03T01:10:27.326Z,34.66
2022-09-03T01:13:08.296Z,35.11
2022-09-03T01:15:59.570Z,34.95
2022-09-03T01:18:37.244Z,35.04
2022-09-03T01:21:36.684Z,35.00
2022-09-03T01:24:17.763Z,34.89
2022-09-03T01:26:57.665Z,35.35
2022-09-03T01:29:33.754Z,34.99
2022-09-03T01:32:00.854Z,35.13
2022-09-03T01:34:43.012Z,35.17
2022-09-03T01:37:20.438Z,35.52
2022-09-03T01:40:18.607Z,35.27
2022-09-03T01:42:54.378Z,35.57
2022-09-03T01:45:51.166Z,35.53
2022-09-03T01:48:27.254Z,35.57
2022-09-03T01:51:09.161Z,35.33
2022-09-03T01:54:10.976Z,35.54
2022-09-03T01:57:35.266Z,35.31
2022-09-03T02:00:16.683Z,35.37
2022-09-03T02:02:48.000Z,35.77
2022-09-03T02:05:19.520Z,35.48
2022-09-03T02:07:49.127Z,35.61
2022-09-03T02:10:19.045Z,35.60
2022-09-03T02:12:51.917Z,35.92
2022-09-03T02:15:22.699Z,35.53
2022-09-03T02:17:54.036Z,35.65
2022-09-03T02:20:23.201Z,35.58
2022-09-03T02:22:50.704Z,35.88
2022-09-03T02:25:23.411Z,35.88
2022-09-03T02:27:51.491Z,35.95
2022-09-03T02:30:18.667Z,35.84
2022-09-03T02:32:45.190Z,36.13
2022-09-03T02:35:12.884Z,35.77
2022-09-03T02:37:40.176Z,36.07
2022-09-03T02:40:10.182Z,35.98
2022-09-03T02:42:37.035Z,36.45
2022-09-03T02:45:09.589Z,36.42
2022-09-03T02:47:40.746Z,36.41
2022-09-03T02:50:07.593Z,36.14
2022-09-03T02:52:34.149Z,36.07
2022-09-03T02:55:00.661Z,36.63
2022-09-03T02:57:27.945Z,36.29
2022-09-03T02:59:54.643Z,36.30
2022-09-03T03:02:21.220Z,36.80
2022-09-03T03:04:51.676Z,36.31
2022-09-03T03:07:18.194Z,36.75
2022-09-03T03:09:44.936Z,36.81
2022-09-03T03:12:11.505Z,36.44
2022-09-03T03:14:37.999Z,36.45
2022-09-03T03:17:05.200Z,36.83
2022-09-03T03:19:31.878Z,36.74
2022-09-03T03:21:58.598Z,36.77
2022-09-03T03:24:26.180Z,36.79
2022-09-03T03:26:57.735Z,36.64
2022-09-03T03:29:25.153Z,36.62
2022-09-03T03:31:52.358Z,37.06
2022-09-03T03:34:23.026Z,37.12
2022-09-03T03:36:49.733Z,36.75
2022-09-03T03:39:16.238Z,37.02
2022-09-03T03:41:42.791Z,36.97
2022-09-03T03:44:11.150Z,37.05
2022-09-03T03:46:39.736Z,37.05
2022-09-03T03:49:07.655Z,37.04
2022-09-03T03:51:35.423Z,37.37
2022-09-03T03:54:05.421Z,37.13
2022-09-03T03:56:32.958Z,37.32
2022-09-03T03:58:59.832Z,37.47
2022-09-03T04:01:27.722Z,37.61
2022-09-03T04:04:00.240Z,37.70
2022-09-03T04:06:28.719Z,37.76
2022-09-03T04:08:55.306Z,37.61
2022-09-03T04:11:24.050Z,37.60
2022-09-03T04:13:53.906Z,37.42
2022-09-03T04:16:23.412Z,37.47
2022-09-03T04:18:51.162Z,37.90
2022-09-03T04:21:20.772Z,37.91
2022-09-03T04:23:50.982Z,38.02
2022-09-03T04:26:31.401Z,37.99
2022-09-03T04:29:01.167Z,37.96
2022-09-03T04:31:28.476Z,38.17
2022-09-03T04:33:58.337Z,37.84
2022-09-03T04:36:26.789Z,38.05
2022-09-03T04:38:54.588Z,37.95
2022-09-03T04:41:26.671Z,38.22
2022-09-03T04:43:57.724Z,38.28
2022-09-03T04:46:27.776Z,38.00
2022-09-03T04:48:55.422Z,37.89
2022-09-03T04:51:24.661Z,38.41
2022-09-03T04:53:57.337Z,38.18
2022-09-03T04:56:26.618Z,38.30
2022-09-03T04:58:58.538Z,38.16
2022-09-03T05:01:27.529Z,38.51
2022-09-03T05:03:59.742Z,38.63
2022-09-03T05:06:27.828Z,38.89
2022-09-03T05:08:55.957Z,38.76
2022-09-03T05:11:23.774Z,38.80
2022-09-03T05:13:57.917Z,38.82
2022-09-03T05:16:26.547Z,38.92
2022-09-03T05:18:54.881Z,39.04
2022-09-03T05:21:22.431Z,39.09
2022-09-03T05:23:50.958Z,38.73
2022-09-03T05:26:23.170Z,38.79
2022-09-03T05:28:55.060Z,38.81
2022-09-03T05:31:22.953Z,39.21
2022-09-03T05:33:52.824Z,38.91
2022-09-03T05:36:23.002Z,39.17
2022-09-03T05:38:50.563Z,39.36
2022-09-03T05:41:18.969Z,39.02
2022-09-03T05:43:51.902Z,39.07
2022-09-03T05:46:18.665Z,39.32
2022-09-03T05:48:45.590Z,39.04
2022-09-03T05:51:17.304Z,39.19
2022-09-03T05:53:46.277Z,39.49
2022-09-03T05:56:18.119Z,39.28
2022-09-03T05:58:48.322Z,38.96
2022-09-03T06:01:14.995Z,39.44
2022-09-03T06:03:43.715Z,39.28
2022-09-03T06:06:11.519Z,39.11
2022-09-03T06:08:41.462Z,39.20
2022-09-03T06:11:08.602Z,39.24
2022-09-03T06:13:37.235Z,39.30
2022-09-03T06:16:06.023Z,39.30
2022-09-03T06:18:32.589Z,39.25
2022-09-03T06:21:01.600Z,39.30
2022-09-03T06:23:30.342Z,39.45
2022-09-03T06:26:06.380Z,39.37
2022-09-03T06:28:34.826Z,39.19
2022-09-03T06:31:03.118Z,39.04
2022-09-03T06:33:36.558Z,39.51
2022-09-03T06:36:08.880Z,39.28
2022-09-03T06:38:37.229Z,38.99
2022-09-03T06:41:21.414Z,39.34
2022-09-03T06:44:04.464Z,39.25
2022-09-03T06:46:33.328Z,39.18
2022-09-03T06:49:00.354Z,39.11
2022-09-03T06:51:28.948Z,38.89
2022-09-03T06:54:07.312Z,38.92
2022-09-03T06:56:39.860Z,38.79
2022-09-03T06:59:14.802Z,38.86
2022-09-03T07:01:45.047Z,38.57
2022-09-03T07:04:19.117Z,38.25
2022-09-03T07:06:47.263Z,38.38
2022-09-03T07:09:15.426Z,37.96
2022-09-03T07:11:47.194Z,37.87
2022-09-03T07:14:20.274Z,38.01
2022-09-03T07:16:48.542Z,37.22
2022-09-03T07:19:15.541Z,37.56
2022-09-03T07:21:46.797Z,37.26
2022-09-03T07:24:22.046Z,36.99
2022-09-03T07:26:50.411Z,37.04
2022-09-03T07:29:20.335Z,36.37
2022-09-03T07:31:47.735Z,36.28
2022-09-03T07:34:16.459Z,36.10
2022-09-03T07:36:49.933Z,35.92
2022-09-03T07:39:18.274Z,35.52
2022-09-03T07:41:46.192Z,35.56
2022-09-03T07:44:19.670Z,35.37
2022-09-03T07:46:47.955Z,35.03
2022-09-03T07:49:15.062Z,34.94
2022-09-03T07:51:41.623Z,35.03
2022-09-03T07:54:11.684Z,34.53
2022-09-03T07:56:40.309Z,34.66
2022-09-03T07:59:07.416Z,34.31
2022-09-03T08:01:35.262Z,34.28
2022-09-03T08:04:06.658Z,33.97
2022-09-03T08:06:39.941Z,33.78
2022-09-03T08:09:11.293Z,33.52
2022-09-03T08:11:39.572Z,33.69
2022-09-03T08:14:12.294Z,33.13
2022-09-03T08:16:45.865Z,33.27
2022-09-03T08:19:13.214Z,33.13
2022-09-03T08:21:42.007Z,32.88
2022-09-03T08:24:09.462Z,32.71
2022-09-03T08:26:37.916Z,32.33
2022-09-03T08:29:05.700Z,32.39
2022-09-03T08:31:33.082Z,32.26
2022-09-03T08:34:06.659Z,31.98
2022-09-03T08:36:38.250Z,31.97
2022-09-03T08:39:10.615Z,31.88
2022-09-03T08:41:52.492Z,31.54
2022-09-03T08:44:49.315Z,31.26
2022-09-03T08:47:37.801Z,31.32
2022-09-03T08:50:13.444Z,31.00
2022-09-03T08:53:02.011Z,30.80
2022-09-03T08:55:42.695Z,30.82
2022-09-03T08:58:16.663Z,30.65
2022-09-03T09:00:49.037Z,30.25
2022-09-03T09:03:27.272Z,30.18
2022-09-03T09:06:39.891Z,30.15
2022-09-03T09:09:28.009Z,30.27
2022-09-03T09:12:01.909Z,29.99
2022-09-03T09:14:50.979Z,29.85
2022-09-03T09:17:39.138Z,29.62
2022-09-03T09:20:11.656Z,29.49
2022-09-03T09:22:41.570Z,29.43
2022-09-03T09:25:15.096Z,29.24
2022-09-03T09:27:51.623Z,29.13
2022-09-03T09:30:19.488Z,29.29
2022-09-03T09:32:47.277Z,28.92
2022-09-03T09:35:19.059Z,28.97
2022-09-03T09:37:53.679Z,28.78
2022-09-03T09:40:45.386Z,28.62
2022-09-03T09:43:22.003Z,28.59
2022-09-03T09:45:53.496Z,28.65
2022-09-03T09:48:37.554Z,28.65
2022-09-03T09:51:11.494Z,28.37
2022-09-03T09:53:41.449Z,28.33
2022-09-03T09:56:08.163Z,28.36
2022-09-03T09:58:35.846Z,27.79
2022-09-03T10:01:04.755Z,27.84
2022-09-03T10:03:37.342Z,27.36
2022-09-03T10:06:28.479Z,27.27
2022-09-03T10:09:13.020Z,26.96
2022-09-03T10:11:45.075Z,27.15
2022-09-03T10:14:27.986Z,26.98
2022-09-03T10:17:04.977Z,26.90
2022-09-03T10:20:19.171Z,26.81
2022-09-03T10:22:56.949Z,26.92
2022-09-03T10:25:58.030Z,26.58
2022-09-03T10:28:29.858Z,26.46
2022-09-03T10:31:23.066Z,26.37
2022-09-03T10:33:59.421Z,26.36
2022-09-03T10:36:46.093Z,25.89
2022-09-03T10:39:23.664Z,26.31
2022-09-03T10:42:11.079Z,25.91
2022-09-03T10:44:53.922Z,25.98
2022-09-03T10:47:51.450Z,25.69
2022-09-03T10:50:30.286Z,25.53
2022-09-03T10:52:56.728Z,25.56
2022-09-03T10:55:38.128Z,25.31
2022-09-03T10:58:48.767Z,25.14
2022-09-03T11:01:38.139Z,25.14
2022-09-03T11:04:32.089Z,24.94
2022-09-03T11:07:07.550Z,25.01
2022-09-03T11:09:41.834Z,24.98
2022-09-03T11:12:27.612Z,24.97
2022-09-03T11:15:10.317Z,24.55
2022-09-03T11:18:16.160Z,24.77
2022-09-03T11:20:44.112Z,24.68
2022-09-03T11:25:52.567Z,24.59
2022-09-03T11:28:45.236Z,24.36
2022-09-03T11:31:17.646Z,24.41
2022-09-03T11:33:56.925Z,24.11
2022-09-03T11:36:29.454Z,24.07
2022-09-03T11:38:56.637Z,24.29
2022-09-03T11:41:26.220Z,24.10
2022-09-03T11:44:01.194Z,23.69
2022-09-03T11:46:30.921Z,23.95
2022-09-03T11:49:27.390Z,23.64
2022-09-03T11:52:03.217Z,23.59
2022-09-03T11:54:33.530Z,23.88
2022-09-03T11:57:26.186Z,23.43
2022-09-03T11:59:53.258Z,23.57
2022-09-03T12:02:30.893Z,23.48
2022-09-03T12:05:22.686Z,23.40
2022-09-03T12:08:06.730Z,23.42
2022-09-03T12:11:09.581Z,23.44
2022-09-03T12:13:59.406Z,23.37
2022-09-03T12:16:51.847Z,23.18
2022-09-03T12:19:45.373Z,23.17
2022-09-03T12:22:16.570Z,23.02
2022-09-03T12:24:44.371Z,23.40
2022-09-03T12:27:18.213Z,23.53
2022-09-03T12:30:02.169Z,23.08
2022-09-03T12:32:32.410Z,23.27
2022-09-03T12:35:11.433Z,23.50
2022-09-03T12:40:30.927Z,23.03
2022-09-03T12:46:15.256Z,22.46
2022-09-03T12:51:52.557Z,22.40
2022-09-03T12:54:25.967Z,22.34
2022-09-03T12:56:58.525Z,22.28
2022-09-03T12:59:28.694Z,22.27
2022-09-03T13:02:00.321Z,21.99
2022-09-03T13:04:35.633Z,22.22
2022-09-03T13:07:08.541Z,21.73
2022-09-03T13:09:38.269Z,21.77
2022-09-03T13:12:05.890Z,21.94
2022-09-03T13:14:52.984Z,21.84
2022-09-03T13:17:38.383Z,21.26
2022-09-03T13:20:28.730Z,21.30
2022-09-03T13:23:32.948Z,21.26
2022-09-03T13:26:14.710Z,21.61
2022-09-03T13:28:57.656Z,21.51
2022-09-03T13:32:00.746Z,21.23
2022-09-03T13:34:40.466Z,20.97
2022-09-03T13:37:46.144Z,21.14
2022-09-03T13:40:19.590Z,21.04
2022-09-03T13:43:02.820Z,20.89
2022-09-03T13:45:37.357Z,20.93
2022-09-03T13:48:47.209Z,21.09
2022-09-03T13:51:18.013Z,20.95
2022-09-03T13:54:04.457Z,20.82
2022-09-03T13:56:58.245Z,21.37
2022-09-03T13:59:49.054Z,21.11
2022-09-03T14:02:38.388Z,20.99
2022-09-03T14:05:29.338Z,21.16
2022-09-03T14:08:09.311Z,20.75
2022-09-03T14:11:07.866Z,20.86
2022-09-03T14:14:09.381Z,20.58
2022-09-03T14:16:50.726Z,20.72
2022-09-03T14:19:45.405Z,20.51
2022-09-03T14:22:22.311Z,20.19
2022-09-03T14:25:01.278Z,20.19
2022-09-03T14:27:30.343Z,20.39
2022-09-03T14:30:07.180Z,20.22
2022-09-03T14:33:20.555Z,20.36
2022-09-03T14:36:10.840Z,20.58
2022-09-03T14:38:40.440Z,20.46
2022-09-03T14:41:22.207Z,20.60
2022-09-03T14:44:24.105Z,20.52
2022-09-03T14:47:05.684Z,20.60
2022-09-03T14:50:00.181Z,20.43
2022-09-03T14:53:00.401Z,20.94
2022-09-03T14:55:59.901Z,20.82
2022-09-03T14:58:38.232Z,20.60
2022-09-03T15:01:13.359Z,20.59
2022-09-03T15:04:00.151Z,20.70
2022-09-03T15:06:44.626Z,21.00
2022-09-03T15:09:38.891Z,21.02
2022-09-03T15:12:39.142Z,20.89
2022-09-03T15:15:13.632Z,21.02
2022-09-03T15:18:02.485Z,21.21
2022-09-03T15:20:50.905Z,21.33
2022-09-03T15:24:02.214Z,21.03
2022-09-03T15:26:54.118Z,20.96
2022-09-03T15:29:51.719Z,21.04
2022-09-03T15:32:48.802Z,21.10
2022-09-03T15:35:38.075Z,21.01
2022-09-03T15:38:10.923Z,21.23
2022-09-03T15:40:46.559Z,21.24
2022-09-03T15:43:25.196Z,21.27
2022-09-03T15:45:58.733Z,21.50
2022-09-03T15:48:31.246Z,21.53
2022-09-03T15:51:25.664Z,21.65
2022-09-03T15:54:43.039Z,21.95
2022-09-03T15:57:20.175Z,22.05
2022-09-03T16:00:07.329Z,21.82
2022-09-03T16:02:50.621Z,22.11
2022-09-03T16:05:29.035Z,22.27
2022-09-03T16:08:07.000Z,22.22
2022-09-03T16:10:46.346Z,22.49
2022-09-03T16:13:35.433Z,23.01
2022-09-03T16:16:30.991Z,22.77
2022-09-03T16:19:05.158Z,22.97
2022-09-03T16:21:56.208Z,23.18
2022-09-03T16:24:45.959Z,23.05
2022-09-03T16:27:33.581Z,23.43
2022-09-03T16:30:11.030Z,23.54
2022-09-03T16:32:54.695Z,23.51
2022-09-03T16:35:27.317Z,23.67
2022-09-03T16:38:27.087Z,23.93
2022-09-03T16:41:04.300Z,23.87
2022-09-03T16:44:04.143Z,24.16
2022-09-03T16:46:50.543Z,24.62
2022-09-03T16:49:19.027Z,24.70
2022-09-03T16:52:09.577Z,25.19
2022-09-03T16:54:55.839Z,25.14
2022-09-03T16:57:31.461Z,25.18
2022-09-03T17:00:14.900Z,25.49
2022-09-03T17:03:26.463Z,25.88
2022-09-03T17:06:14.105Z,25.73
2022-09-03T17:09:01.977Z,25.93
2022-09-03T17:11:49.668Z,26.39
2022-09-03T17:14:47.555Z,26.41
2022-09-03T17:17:33.558Z,26.65
2022-09-03T17:20:27.230Z,26.82
2022-09-03T17:23:38.082Z,26.95
2022-09-03T17:26:15.243Z,26.91
2022-09-03T17:29:14.206Z,27.25
2022-09-03T17:31:51.418Z,27.44
2022-09-03T17:34:57.034Z,27.80
2022-09-03T17:37:36.287Z,27.62
2022-09-03T17:40:32.593Z,27.78
2022-09-03T17:43:25.482Z,28.00
2022-09-03T17:46:27.660Z,28.31
2022-09-03T17:48:58.802Z,28.15
2022-09-03T17:51:47.428Z,28.62
2022-09-03T17:54:39.083Z,28.89
2022-09-03T17:57:10.441Z,28.82
2022-09-03T17:59:46.169Z,29.02
2022-09-03T18:02:27.441Z,29.11
2022-09-03T18:05:16.617Z,29.48
2022-09-03T18:07:54.349Z,29.62
2022-09-03T18:10:52.965Z,29.73
2022-09-03T18:14:00.610Z,30.01
2022-09-03T18:16:33.613Z,30.10
2022-09-03T18:19:08.414Z,30.31
2022-09-03T18:21:57.311Z,30.46
2022-09-03T18:24:51.386Z,30.63
2022-09-03T18:28:20.077Z,30.91
2022-09-03T18:31:08.124Z,30.50
2022-09-03T18:33:57.377Z,30.91
2022-09-03T18:36:42.410Z,31.13
2022-09-03T18:39:34.792Z,31.22
2022-09-03T18:43:02.494Z,31.37
2022-09-03T18:46:38.498Z,31.50
2022-09-03T18:49:27.851Z,31.41
2022-09-03T18:52:29.790Z,31.86
2022-09-03T18:55:40.940Z,31.94
2022-09-03T18:58:37.781Z,32.18
2022-09-03T19:01:52.156Z,32.62
2022-09-03T19:05:22.546Z,32.65
2022-09-03T19:08:24.541Z,32.87
2022-09-03T19:11:24.861Z,33.13
2022-09-03T19:14:11.802Z,33.08
2022-09-03T19:16:56.691Z,33.06
2022-09-03T19:20:14.214Z,33.29
2022-09-03T19:23:00.378Z,33.50
2022-09-03T19:25:48.475Z,33.55
2022-09-03T19:28:48.170Z,33.83
2022-09-03T19:31:54.330Z,34.06
2022-09-03T19:35:09.941Z,34.16
2022-09-03T19:38:10.289Z,34.49
2022-09-03T19:41:26.791Z,34.77
2022-09-03T19:44:22.439Z,34.52
2022-09-03T19:47:15.386Z,34.57
2022-09-03T19:50:22.569Z,34.59
2022-09-03T19:53:37.240Z,34.57
2022-09-03T19:56:29.260Z,34.92
2022-09-03T19:59:18.809Z,35.07
2022-09-03T20:02:05.345Z,35.24
2022-09-03T20:05:06.372Z,35.37
2022-09-03T20:07:53.914Z,35.41
2022-09-03T20:10:23.709Z,35.56
2022-09-03T20:13:04.144Z,35.94
2022-09-03T20:16:06.623Z,36.17
2022-09-03T20:18:57.642Z,36.18
2022-09-03T20:21:49.754Z,36.31
2022-09-03T20:24:29.468Z,36.46
2022-09-03T20:27:15.163Z,36.32
2022-09-03T20:30:09.653Z,36.21
2022-09-03T20:32:59.407Z,36.14
2022-09-03T20:35:49.557Z,36.76
2022-09-03T20:38:43.511Z,37.08
2022-09-03T20:41:23.237Z,36.89
2022-09-03T20:44:20.301Z,37.61
2022-09-03T20:47:21.324Z,37.59
2022-09-03T20:50:21.457Z,37.85
2022-09-03T20:53:33.170Z,38.22
2022-09-03T20:56:47.974Z,38.22
2022-09-03T20:59:49.894Z,38.61
2022-09-03T21:02:41.321Z,38.69
2022-09-03T21:05:22.002Z,38.88
2022-09-03T21:07:54.399Z,38.65
2022-09-03T21:10:26.598Z,38.82
2022-09-03T21:12:59.631Z,38.87
2022-09-03T21:15:52.117Z,38.86
2022-09-03T21:18:38.788Z,39.18
2022-09-03T21:21:45.617Z,38.92
2022-09-03T21:24:31.357Z,39.18
2022-09-03T21:27:13.986Z,38.96
2022-09-03T21:29:45.254Z,39.27
2022-09-03T21:32:18.738Z,39.27
2022-09-03T21:35:03.938Z,39.38
2022-09-03T21:37:35.211Z,39.34
2022-09-03T21:40:04.570Z,39.27
2022-09-03T21:42:52.261Z,39.31
2022-09-03T21:45:33.969Z,39.27
2022-09-03T21:48:07.640Z,39.61
2022-09-03T21:50:46.373Z,39.49
2022-09-03T21:53:31.697Z,39.44
2022-09-03T21:56:27.160Z,39.77
2022-09-03T21:59:08.937Z,39.76
2022-09-03T22:02:00.912Z,39.97
2022-09-03T22:04:54.667Z,39.93
2022-09-03T22:07:39.231Z,40.02
2022-09-03T22:10:28.527Z,39.96
2022-09-03T22:13:09.347Z,40.21
2022-09-03T22:15:38.188Z,40.53
2022-09-03T22:18:28.692Z,40.41
2022-09-03T22:21:35.881Z,40.41
2022-09-03T22:24:23.209Z,40.10
2022-09-03T22:27:01.593Z,40.47
2022-09-03T22:29:42.009Z,40.51
2022-09-03T22:32:34.576Z,40.54
2022-09-03T22:35:16.973Z,40.80
2022-09-03T22:38:01.001Z,40.96
2022-09-03T22:40:52.359Z,41.28
2022-09-03T22:43:41.666Z,41.13
2022-09-03T22:46:19.626Z,41.39
2022-09-03T22:49:18.114Z,41.68
2022-09-03T22:52:02.932Z,41.90
2022-09-03T22:54:55.035Z,42.07
2022-09-03T22:57:26.211Z,42.06
2022-09-03T23:00:01.906Z,41.88
2022-09-03T23:02:31.290Z,42.14
2022-09-03T23:05:07.689Z,42.50
2022-09-03T23:07:41.885Z,42.45
2022-09-03T23:10:23.082Z,42.59
2022-09-03T23:13:08.027Z,42.64
2022-09-03T23:15:39.384Z,42.64
2022-09-03T23:18:22.289Z,42.64
2022-09-03T23:21:15.946Z,43.10
2022-09-03T23:23:55.670Z,43.14
2022-09-03T23:26:34.224Z,42.97
2022-09-03T23:29:12.424Z,43.48
2022-09-03T23:31:39.376Z,43.54
2022-09-03T23:34:11.810Z,43.61
2022-09-03T23:37:01.326Z,43.57
2022-09-03T23:39:49.392Z,43.56
2022-09-03T23:42:39.047Z,43.91
2022-09-03T23:45:24.105Z,43.95
2022-09-03T23:48:13.655Z,43.94
2022-09-03T23:51:05.881Z,43.78
2022-09-03T23:53:40.542Z,44.19
2022-09-03T23:56:28.419Z,44.08
2022-09-03T23:59:13.968Z,44.21
